Time;durP1;ratioP1;P1;durP2;ratioP2;P2;SDS_P1;SDS_P2;PMS_P1;PMS_P2;Temp;Humidity;BMP_temperature;BMP_pressure;BME280_temperature;BME280_humidity;BME280_pressure;Samples;Min_cycle;Max_cycle;Signal;HPM_P1;HPM_P2
2023/05/19 00:01:28;;;;;;;0.57;0.57;;;;;;;;;;5104263;28;20174;-84
2023/05/19 00:03:57;;;;;;;0.70;0.70;;;;;;;;;;5103966;28;20670;-84
2023/05/19 00:06:25;;;;;;;0.60;0.60;;;;;;;;;;5105353;28;20861;-84
2023/05/19 00:08:59;;;;;;;0.43;0.43;;;;;;;;;;5095229;28;20175;-84
2023/05/19 00:11:26;;;;;;;0.40;0.40;;;;;;;;;;5084563;28;20223;-84
2023/05/19 00:13:53;;;;;;;0.53;0.53;;;;;;;;;;5085319;28;20198;-83
2023/05/19 00:16:19;;;;;;;0.50;0.50;;;;;;;;;;5086560;28;20185;-83
2023/05/19 00:18:46;;;;;;;0.60;0.60;;;;;;;;;;5085550;28;20214;-84
2023/05/19 00:21:12;;;;;;;0.50;0.50;;;;;;;;;;5086984;28;20186;-85
2023/05/19 00:23:38;;;;;;;0.60;0.60;;;;;;;;;;5088896;28;20202;-85
2023/05/19 00:26:04;;;;;;;0.53;0.53;;;;;;;;;;5091158;28;20184;-84
2023/05/19 00:28:30;;;;;;;0.40;0.40;;;;;;;;;;5090608;28;20238;-84
2023/05/19 00:30:56;;;;;;;0.60;0.60;;;;;;;;;;5090447;28;20170;-84
2023/05/19 00:33:22;;;;;;;0.60;0.60;;;;;;;;;;5089874;28;20201;-84
2023/05/19 00:35:48;;;;;;;0.60;0.60;;;;;;;;;;5094439;28;20186;-83
2023/05/19 00:38:14;;;;;;;0.60;0.60;;;;;;;;;;5092373;28;20299;-83
2023/05/19 00:40:40;;;;;;;0.50;0.50;;;;;;;;;;5084852;28;20175;-83
2023/05/19 00:43:07;;;;;;;0.40;0.40;;;;;;;;;;5078897;28;20194;-83
2023/05/19 00:45:33;;;;;;;0.60;0.60;;;;;;;;;;5079466;28;20185;-84
2023/05/19 00:47:59;;;;;;;0.50;0.50;;;;;;;;;;5079799;28;20634;-83
2023/05/19 00:50:27;;;;;;;0.50;0.50;;;;;;;;;;5079888;28;20232;-84
2023/05/19 00:52:53;;;;;;;0.50;0.50;;;;;;;;;;5079750;28;20228;-84
2023/05/19 00:55:19;;;;;;;0.53;0.53;;;;;;;;;;5080096;28;20178;-84
2023/05/19 00:57:46;;;;;;;0.40;0.40;;;;;;;;;;5079642;28;20305;-84
2023/05/19 01:00:12;;;;;;;0.50;0.50;;;;;;;;;;5080143;28;20175;-84
2023/05/19 01:02:38;;;;;;;0.50;0.50;;;;;;;;;;5078930;28;20676;-85
2023/05/19 01:05:05;;;;;;;0.50;0.50;;;;;;;;;;5078999;28;20182;-84
2023/05/19 01:07:32;;;;;;;0.50;0.50;;;;;;;;;;5079562;28;20190;-84
2023/05/19 01:09:58;;;;;;;0.53;0.53;;;;;;;;;;5080909;28;20182;-83
2023/05/19 01:12:24;;;;;;;0.60;0.60;;;;;;;;;;5080368;28;20210;-83
2023/05/19 01:14:51;;;;;;;0.50;0.50;;;;;;;;;;5079726;28;20664;-84
2023/05/19 01:17:17;;;;;;;0.60;0.60;;;;;;;;;;5078897;28;20178;-84
2023/05/19 01:19:49;;;;;;;0.63;0.63;;;;;;;;;;5078548;28;20683;-84
2023/05/19 01:22:27;;;;;;;0.50;0.50;;;;;;;;;;5077885;28;20174;-84
2023/05/19 01:25:09;;;;;;;0.60;0.60;;;;;;;;;;5078170;28;20178;-84
2023/05/19 01:27:37;;;;;;;0.50;0.50;;;;;;;;;;5087497;28;20185;-84
2023/05/19 01:30:10;;;;;;;0.63;0.63;;;;;;;;;;5098076;28;20183;-83
2023/05/19 01:32:37;;;;;;;0.60;0.60;;;;;;;;;;5098720;28;20202;-84
2023/05/19 01:35:04;;;;;;;0.60;0.60;;;;;;;;;;5097796;28;20185;-84
2023/05/19 01:37:31;;;;;;;0.53;0.53;;;;;;;;;;5094047;28;20217;-84
2023/05/19 01:39:57;;;;;;;0.60;0.60;;;;;;;;;;5098553;28;20183;-85
2023/05/19 01:42:23;;;;;;;0.60;0.60;;;;;;;;;;5096484;28;20210;-84
2023/05/19 01:44:50;;;;;;;0.60;0.60;;;;;;;;;;5094558;28;20173;-84
2023/05/19 01:47:16;;;;;;;0.70;0.70;;;;;;;;;;5098255;28;20188;-84
2023/05/19 01:49:42;;;;;;;0.60;0.60;;;;;;;;;;5098733;28;20200;-83
2023/05/19 01:52:07;;;;;;;0.50;0.50;;;;;;;;;;5098193;28;20167;-84
2023/05/19 01:54:33;;;;;;;0.60;0.60;;;;;;;;;;5098670;28;20182;-84
2023/05/19 01:57:03;;;;;;;0.50;0.50;;;;;;;;;;5099215;28;20174;-84
2023/05/19 01:59:38;;;;;;;0.50;0.50;;;;;;;;;;5099338;28;20183;-83
2023/05/19 02:02:09;;;;;;;0.50;0.50;;;;;;;;;;5098983;28;20174;-85
2023/05/19 02:04:42;;;;;;;0.50;0.50;;;;;;;;;;5099288;28;20162;-84
2023/05/19 02:07:25;;;;;;;0.60;0.60;;;;;;;;;;5099308;28;20185;-85
2023/05/19 02:09:51;;;;;;;0.53;0.53;;;;;;;;;;5099203;27;20157;-84
2023/05/19 02:12:28;;;;;;;0.47;0.47;;;;;;;;;;5098396;28;20265;-84
2023/05/19 02:15:00;;;;;;;0.50;0.50;;;;;;;;;;5098477;28;20185;-83
2023/05/19 02:17:27;;;;;;;0.57;0.57;;;;;;;;;;5077133;28;20206;-83
2023/05/19 02:19:53;;;;;;;0.60;0.60;;;;;;;;;;5073691;28;20303;-84
2023/05/19 02:22:19;;;;;;;0.50;0.50;;;;;;;;;;5074899;28;20221;-84
2023/05/19 02:24:46;;;;;;;0.67;0.67;;;;;;;;;;5080414;28;20166;-84
2023/05/19 02:27:12;;;;;;;0.60;0.60;;;;;;;;;;5076054;28;20182;-85
2023/05/19 02:29:38;;;;;;;0.60;0.60;;;;;;;;;;5074995;28;20285;-85
2023/05/19 02:32:05;;;;;;;0.50;0.50;;;;;;;;;;5074182;28;20178;-84
2023/05/19 02:34:31;;;;;;;0.60;0.60;;;;;;;;;;5075260;28;20220;-85
2023/05/19 02:36:57;;;;;;;0.50;0.50;;;;;;;;;;5075873;28;20182;-83
2023/05/19 02:39:23;;;;;;;0.50;0.50;;;;;;;;;;5092304;28;20198;-83
2023/05/19 02:41:49;;;;;;;0.40;0.40;;;;;;;;;;5096587;28;20197;-83
2023/05/19 02:44:15;;;;;;;0.53;0.53;;;;;;;;;;5091772;28;20205;-85
2023/05/19 02:46:41;;;;;;;0.70;0.70;;;;;;;;;;5089535;28;20159;-84
2023/05/19 02:49:07;;;;;;;0.67;0.67;;;;;;;;;;5087666;28;20185;-84
2023/05/19 02:51:33;;;;;;;0.50;0.50;;;;;;;;;;5088252;28;20238;-84
2023/05/19 02:53:59;;;;;;;0.40;0.40;;;;;;;;;;5088537;28;20200;-85
2023/05/19 02:56:27;;;;;;;0.50;0.50;;;;;;;;;;5088323;28;20548;-84
2023/05/19 02:58:52;;;;;;;0.50;0.50;;;;;;;;;;5087984;28;20222;-84
2023/05/19 03:01:21;;;;;;;0.60;0.60;;;;;;;;;;5086796;28;20178;-84
2023/05/19 03:03:47;;;;;;;0.50;0.50;;;;;;;;;;5086467;28;20186;-85
2023/05/19 03:06:14;;;;;;;0.50;0.50;;;;;;;;;;5086729;28;20201;-84
2023/05/19 03:08:40;;;;;;;0.70;0.70;;;;;;;;;;5086545;28;20177;-84
2023/05/19 03:11:06;;;;;;;0.50;0.50;;;;;;;;;;5087208;28;20205;-84
2023/05/19 03:13:32;;;;;;;0.40;0.40;;;;;;;;;;5085542;28;20194;-86
2023/05/19 03:15:58;;;;;;;0.57;0.57;;;;;;;;;;5086207;28;20191;-84
2023/05/19 03:18:25;;;;;;;0.50;0.50;;;;;;;;;;5085894;28;20218;-84
2023/05/19 03:20:52;;;;;;;0.60;0.60;;;;;;;;;;5086537;28;20190;-84
2023/05/19 03:23:18;;;;;;;0.50;0.50;;;;;;;;;;5085783;28;20205;-84
2023/05/19 03:25:44;;;;;;;0.70;0.70;;;;;;;;;;5086579;28;20209;-84
2023/05/19 03:28:10;;;;;;;0.40;0.40;;;;;;;;;;5085551;28;20178;-84
2023/05/19 03:30:36;;;;;;;0.60;0.60;;;;;;;;;;5086294;28;20209;-84
2023/05/19 03:33:04;;;;;;;0.50;0.50;;;;;;;;;;5084275;28;20198;-84
2023/05/19 03:35:30;;;;;;;0.63;0.63;;;;;;;;;;5084248;28;20174;-85
2023/05/19 03:37:56;;;;;;;0.50;0.50;;;;;;;;;;5084276;28;20210;-84
2023/05/19 03:40:22;;;;;;;0.53;0.53;;;;;;;;;;5084654;28;20167;-84
2023/05/19 03:42:48;;;;;;;0.60;0.60;;;;;;;;;;5084116;28;20198;-84
2023/05/19 03:45:14;;;;;;;0.70;0.70;;;;;;;;;;5084839;28;20575;-85
2023/05/19 03:47:40;;;;;;;0.60;0.60;;;;;;;;;;5085249;28;20170;-84
2023/05/19 03:50:06;;;;;;;0.70;0.70;;;;;;;;;;5085987;28;20183;-84
2023/05/19 03:52:32;;;;;;;0.50;0.50;;;;;;;;;;5086007;28;20660;-85
2023/05/19 03:54:58;;;;;;;0.60;0.60;;;;;;;;;;5086760;28;20190;-85
2023/05/19 03:57:24;;;;;;;0.50;0.50;;;;;;;;;;5087950;28;20197;-85
2023/05/19 03:59:50;;;;;;;0.60;0.60;;;;;;;;;;5090386;28;20273;-85
2023/05/19 04:02:16;;;;;;;0.50;0.50;;;;;;;;;;5090431;28;20177;-85
2023/05/19 04:04:42;;;;;;;0.53;0.53;;;;;;;;;;5091287;28;20182;-84
2023/05/19 04:07:08;;;;;;;0.60;0.60;;;;;;;;;;5091705;28;20179;-85
2023/05/19 04:09:34;;;;;;;0.50;0.50;;;;;;;;;;5092362;28;20178;-84
2023/05/19 04:12:01;;;;;;;0.60;0.60;;;;;;;;;;5092220;28;20197;-84
2023/05/19 04:14:27;;;;;;;0.77;0.77;;;;;;;;;;5091501;28;20174;-84
2023/05/19 04:16:54;;;;;;;0.60;0.60;;;;;;;;;;5093728;28;20201;-84
2023/05/19 04:19:20;;;;;;;0.50;0.50;;;;;;;;;;5095384;28;20576;-84
2023/05/19 04:21:46;;;;;;;0.50;0.50;;;;;;;;;;5096410;28;20209;-83
2023/05/19 04:24:12;;;;;;;0.60;0.60;;;;;;;;;;5095002;28;20210;-83
2023/05/19 04:26:40;;;;;;;0.60;0.60;;;;;;;;;;5089561;28;20625;-84
2023/05/19 04:29:07;;;;;;;0.70;0.70;;;;;;;;;;5088906;28;20175;-84
2023/05/19 04:31:34;;;;;;;0.60;0.60;;;;;;;;;;5087805;28;20182;-84
2023/05/19 04:34:00;;;;;;;0.50;0.50;;;;;;;;;;5083657;28;20230;-83
2023/05/19 04:36:26;;;;;;;0.57;0.57;;;;;;;;;;5084711;28;20186;-84
2023/05/19 04:38:53;;;;;;;0.50;0.50;;;;;;;;;;5083783;28;20269;-84
2023/05/19 04:41:20;;;;;;;0.50;0.50;;;;;;;;;;5083506;28;20171;-84
2023/05/19 04:43:47;;;;;;;0.60;0.60;;;;;;;;;;5080271;28;20225;-86
2023/05/19 04:46:13;;;;;;;0.60;0.60;;;;;;;;;;5080661;28;20658;-83
2023/05/19 04:48:39;;;;;;;0.60;0.60;;;;;;;;;;5081745;28;20182;-83
2023/05/19 04:51:06;;;;;;;0.40;0.40;;;;;;;;;;5082399;28;20601;-84
2023/05/19 04:53:32;;;;;;;0.40;0.40;;;;;;;;;;5082849;28;20685;-83
2023/05/19 04:55:59;;;;;;;0.60;0.60;;;;;;;;;;5082235;28;20178;-84
2023/05/19 04:58:26;;;;;;;0.60;0.60;;;;;;;;;;5081311;28;20221;-85
2023/05/19 05:00:54;;;;;;;0.70;0.70;;;;;;;;;;5082102;28;20183;-85
2023/05/19 05:03:21;;;;;;;0.60;0.60;;;;;;;;;;5082137;28;20194;-84
2023/05/19 05:05:47;;;;;;;0.70;0.70;;;;;;;;;;5083811;28;20580;-85
2023/05/19 05:08:15;;;;;;;0.60;0.60;;;;;;;;;;5084521;28;20185;-84
2023/05/19 05:10:41;;;;;;;0.70;0.70;;;;;;;;;;5084970;28;20267;-84
2023/05/19 05:13:07;;;;;;;0.50;0.50;;;;;;;;;;5082895;28;20202;-84
2023/05/19 05:15:34;;;;;;;0.50;0.50;;;;;;;;;;5083089;28;20178;-84
2023/05/19 05:18:00;;;;;;;0.50;0.50;;;;;;;;;;5081928;28;20576;-83
2023/05/19 05:20:26;;;;;;;0.50;0.50;;;;;;;;;;5081913;28;20247;-84
2023/05/19 05:22:52;;;;;;;0.50;0.50;;;;;;;;;;5081714;28;20258;-83
2023/05/19 05:25:19;;;;;;;0.50;0.50;;;;;;;;;;5081564;28;20201;-83
2023/05/19 05:27:45;;;;;;;0.50;0.50;;;;;;;;;;5081777;28;20185;-84
2023/05/19 05:30:11;;;;;;;0.50;0.50;;;;;;;;;;5083097;28;20171;-84
2023/05/19 05:32:37;;;;;;;0.50;0.50;;;;;;;;;;5082655;28;20198;-84
2023/05/19 05:35:03;;;;;;;0.50;0.50;;;;;;;;;;5082171;28;20273;-84
2023/05/19 05:37:30;;;;;;;0.50;0.50;;;;;;;;;;5082633;28;20259;-85
2023/05/19 05:39:56;;;;;;;0.40;0.40;;;;;;;;;;5068524;28;20278;-84
2023/05/19 05:42:22;;;;;;;0.40;0.40;;;;;;;;;;5078092;28;20209;-85
2023/05/19 05:44:48;;;;;;;0.60;0.60;;;;;;;;;;5079101;28;20277;-85
2023/05/19 05:47:14;;;;;;;0.50;0.50;;;;;;;;;;5081034;28;20170;-84
2023/05/19 05:49:40;;;;;;;0.50;0.50;;;;;;;;;;5082389;28;20198;-85
2023/05/19 05:52:08;;;;;;;0.40;0.40;;;;;;;;;;5081136;28;20521;-85
2023/05/19 05:54:34;;;;;;;0.50;0.50;;;;;;;;;;5078291;28;20186;-84
2023/05/19 05:57:01;;;;;;;0.50;0.50;;;;;;;;;;5079875;28;20216;-85
2023/05/19 05:59:27;;;;;;;0.50;0.50;;;;;;;;;;5079799;28;20222;-84
2023/05/19 06:01:53;;;;;;;0.50;0.50;;;;;;;;;;5080580;28;20166;-84
2023/05/19 06:04:19;;;;;;;0.60;0.60;;;;;;;;;;5079057;28;20221;-83
2023/05/19 06:06:45;;;;;;;0.50;0.50;;;;;;;;;;5079966;28;20174;-84
2023/05/19 06:09:11;;;;;;;0.40;0.40;;;;;;;;;;5080369;28;20209;-84
2023/05/19 06:11:37;;;;;;;0.30;0.30;;;;;;;;;;5079264;28;20205;-83
2023/05/19 06:14:03;;;;;;;0.40;0.40;;;;;;;;;;5079691;28;20194;-84
2023/05/19 06:16:29;;;;;;;0.50;0.50;;;;;;;;;;5073535;28;20179;-85
2023/05/19 06:18:55;;;;;;;0.60;0.60;;;;;;;;;;5071723;28;20285;-84
2023/05/19 06:21:21;;;;;;;0.57;0.57;;;;;;;;;;5060374;28;20183;-84
2023/05/19 06:23:47;;;;;;;0.47;0.47;;;;;;;;;;5061518;28;20195;-86
2023/05/19 06:26:14;;;;;;;0.60;0.60;;;;;;;;;;5060893;28;20599;-84
2023/05/19 06:28:40;;;;;;;0.53;0.53;;;;;;;;;;5061355;28;20175;-85
2023/05/19 06:31:06;;;;;;;0.40;0.40;;;;;;;;;;5060488;28;20277;-84
2023/05/19 06:33:32;;;;;;;0.47;0.47;;;;;;;;;;5070931;28;20206;-84
2023/05/19 06:35:59;;;;;;;0.50;0.50;;;;;;;;;;5078752;28;20179;-85
2023/05/19 06:38:25;;;;;;;0.47;0.47;;;;;;;;;;5082928;28;20214;-85
2023/05/19 06:40:51;;;;;;;0.50;0.50;;;;;;;;;;5081228;28;20170;-85
2023/05/19 06:43:17;;;;;;;0.40;0.40;;;;;;;;;;5085094;28;20684;-85
2023/05/19 06:45:43;;;;;;;0.40;0.40;;;;;;;;;;5086865;28;20167;-83
2023/05/19 06:48:09;;;;;;;0.53;0.53;;;;;;;;;;5081971;28;20597;-82
2023/05/19 06:50:35;;;;;;;0.60;0.60;;;;;;;;;;5091741;28;20205;-85
2023/05/19 06:53:01;;;;;;;0.50;0.50;;;;;;;;;;5088831;28;20204;-86
2023/05/19 06:55:27;;;;;;;0.50;0.50;;;;;;;;;;5096537;28;20238;-87
2023/05/19 06:57:53;;;;;;;0.43;0.43;;;;;;;;;;5092293;28;20210;-85
2023/05/19 07:00:19;;;;;;;0.50;0.50;;;;;;;;;;5083842;28;20178;-86
2023/05/19 07:02:45;;;;;;;0.43;0.43;;;;;;;;;;5096168;28;20228;-85
2023/05/19 07:05:11;;;;;;;0.50;0.50;;;;;;;;;;5076810;28;20182;-87
2023/05/19 07:07:37;;;;;;;0.57;0.57;;;;;;;;;;5076729;28;20174;-85
2023/05/19 07:10:03;;;;;;;0.50;0.50;;;;;;;;;;5070265;28;20189;-85
2023/05/19 07:12:29;;;;;;;0.40;0.40;;;;;;;;;;5071345;28;20217;-84
2023/05/19 07:14:55;;;;;;;0.40;0.40;;;;;;;;;;5073099;28;20197;-85
2023/05/19 07:17:21;;;;;;;0.40;0.40;;;;;;;;;;5073339;28;20178;-85
2023/05/19 07:19:47;;;;;;;0.43;0.43;;;;;;;;;;5073538;28;20186;-84
2023/05/19 07:22:13;;;;;;;0.50;0.50;;;;;;;;;;5077515;28;20184;-87
2023/05/19 07:24:39;;;;;;;0.50;0.50;;;;;;;;;;5086636;28;20638;-85
2023/05/19 07:27:05;;;;;;;0.50;0.50;;;;;;;;;;5073550;28;20228;-84
2023/05/19 07:29:31;;;;;;;0.50;0.50;;;;;;;;;;5076191;28;20609;-85
2023/05/19 07:31:57;;;;;;;0.50;0.50;;;;;;;;;;5093778;28;20165;-85
2023/05/19 07:34:24;;;;;;;0.50;0.50;;;;;;;;;;5083533;28;20241;-84
2023/05/19 07:36:53;;;;;;;0.40;0.40;;;;;;;;;;5096700;28;20177;-86
2023/05/19 07:39:19;;;;;;;0.50;0.50;;;;;;;;;;5079911;28;20684;-86
2023/05/19 07:41:51;;;;;;;0.50;0.50;;;;;;;;;;5097583;28;20173;-84
2023/05/19 07:44:17;;;;;;;0.60;0.60;;;;;;;;;;5087067;28;20182;-85
2023/05/19 07:46:43;;;;;;;0.43;0.43;;;;;;;;;;5089977;28;20175;-85
2023/05/19 07:49:09;;;;;;;0.40;0.40;;;;;;;;;;5079488;28;20228;-84
2023/05/19 07:51:35;;;;;;;0.43;0.43;;;;;;;;;;5072354;28;20538;-86
2023/05/19 07:54:01;;;;;;;0.50;0.50;;;;;;;;;;5078093;28;20190;-87
2023/05/19 07:56:27;;;;;;;0.40;0.40;;;;;;;;;;5081000;28;20175;-85
2023/05/19 07:58:53;;;;;;;0.60;0.60;;;;;;;;;;5081345;28;20214;-85
2023/05/19 08:01:19;;;;;;;0.50;0.50;;;;;;;;;;5081345;28;20171;-84
2023/05/19 08:03:45;;;;;;;0.57;0.57;;;;;;;;;;5080034;28;20210;-91
2023/05/19 08:06:11;;;;;;;0.40;0.40;;;;;;;;;;5081155;28;20167;-91
2023/05/19 08:08:37;;;;;;;0.50;0.50;;;;;;;;;;5081135;28;20266;-87
2023/05/19 08:11:03;;;;;;;0.60;0.60;;;;;;;;;;5080906;28;20179;-87
2023/05/19 08:13:30;;;;;;;0.50;0.50;;;;;;;;;;5080825;28;20175;-91
2023/05/19 08:15:58;;;;;;;0.60;0.60;;;;;;;;;;5081058;28;20234;-90
2023/05/19 08:18:27;;;;;;;0.50;0.50;;;;;;;;;;5080912;28;20210;-91
2023/05/19 08:20:53;;;;;;;0.50;0.50;;;;;;;;;;5080919;28;20190;-88
2023/05/19 08:23:19;;;;;;;0.50;0.50;;;;;;;;;;5089790;28;20198;-88
2023/05/19 08:25:45;;;;;;;0.50;0.50;;;;;;;;;;5088297;28;20215;-87
2023/05/19 08:28:11;;;;;;;0.60;0.60;;;;;;;;;;5100082;28;20162;-88
2023/05/19 08:30:37;;;;;;;0.60;0.60;;;;;;;;;;5100057;28;20238;-88
2023/05/19 08:33:03;;;;;;;0.40;0.40;;;;;;;;;;5110161;27;20197;-86
2023/05/19 08:35:29;;;;;;;0.53;0.53;;;;;;;;;;5103908;27;20174;-87
2023/05/19 08:37:55;;;;;;;0.40;0.40;;;;;;;;;;5078420;28;20214;-85
2023/05/19 08:40:22;;;;;;;0.40;0.40;;;;;;;;;;5076066;28;20200;-85
2023/05/19 08:42:48;;;;;;;0.60;0.60;;;;;;;;;;5074273;28;20230;-85
2023/05/19 08:45:15;;;;;;;0.40;0.40;;;;;;;;;;5075597;28;20270;-87
2023/05/19 08:47:41;;;;;;;0.57;0.57;;;;;;;;;;5074577;28;20182;-86
2023/05/19 08:50:09;;;;;;;0.50;0.50;;;;;;;;;;5095273;28;20178;-86
2023/05/19 08:52:51;;;;;;;0.57;0.57;;;;;;;;;;5094649;28;20197;-87
2023/05/19 08:55:27;;;;;;;0.60;0.60;;;;;;;;;;5095149;28;20174;-87
2023/05/19 08:57:53;;;;;;;0.50;0.50;;;;;;;;;;5094907;28;20216;-87
2023/05/19 09:00:19;;;;;;;0.50;0.50;;;;;;;;;;5054504;28;20179;-86
2023/05/19 09:02:47;;;;;;;0.40;0.40;;;;;;;;;;5054199;28;20198;-86
2023/05/19 09:05:14;;;;;;;0.43;0.43;;;;;;;;;;5054487;28;20194;-86
2023/05/19 09:07:42;;;;;;;0.53;0.53;;;;;;;;;;5054793;28;20171;-86
2023/05/19 09:10:08;;;;;;;0.50;0.50;;;;;;;;;;5054507;28;20186;-86
2023/05/19 09:12:34;;;;;;;0.40;0.40;;;;;;;;;;5054102;28;20215;-87
2023/05/19 09:15:01;;;;;;;0.40;0.40;;;;;;;;;;5058240;28;20175;-88
2023/05/19 09:17:27;;;;;;;0.40;0.40;;;;;;;;;;5056637;28;20187;-87
2023/05/19 09:19:53;;;;;;;0.50;0.50;;;;;;;;;;5056501;28;20541;-86
2023/05/19 09:22:19;;;;;;;0.47;0.47;;;;;;;;;;5055532;28;20477;-84
2023/05/19 09:24:46;;;;;;;0.50;0.50;;;;;;;;;;5070899;28;20270;-86
2023/05/19 09:27:15;;;;;;;0.50;0.50;;;;;;;;;;5076536;28;20174;-85
2023/05/19 09:29:41;;;;;;;0.50;0.50;;;;;;;;;;5070290;28;20258;-84
2023/05/19 09:32:07;;;;;;;0.50;0.50;;;;;;;;;;5070899;28;20197;-86
2023/05/19 09:34:33;;;;;;;0.50;0.50;;;;;;;;;;5076734;28;20175;-86
2023/05/19 09:36:59;;;;;;;0.50;0.50;;;;;;;;;;5081610;28;20211;-84
2023/05/19 09:39:27;;;;;;;0.50;0.50;;;;;;;;;;5082927;28;20221;-88
2023/05/19 09:41:54;;;;;;;0.57;0.57;;;;;;;;;;5079564;28;20174;-85
2023/05/19 09:44:20;;;;;;;0.50;0.50;;;;;;;;;;5082633;28;20190;-87
2023/05/19 09:46:49;;;;;;;0.60;0.60;;;;;;;;;;5083517;28;20213;-87
2023/05/19 09:49:19;;;;;;;0.50;0.50;;;;;;;;;;5078839;28;20206;-85
2023/05/19 09:51:45;;;;;;;0.50;0.50;;;;;;;;;;5065993;28;20184;-84
2023/05/19 09:54:17;;;;;;;0.50;0.50;;;;;;;;;;5059978;28;20187;-86
2023/05/19 09:56:43;;;;;;;0.47;0.47;;;;;;;;;;5074304;28;20236;-86
2023/05/19 09:59:10;;;;;;;0.50;0.50;;;;;;;;;;5092326;28;20205;-86
2023/05/19 10:01:39;;;;;;;0.40;0.40;;;;;;;;;;5095835;28;20184;-87
2023/05/19 10:04:05;;;;;;;0.60;0.60;;;;;;;;;;5098183;28;20228;-89
2023/05/19 10:06:32;;;;;;;0.43;0.43;;;;;;;;;;5098454;28;20589;-86
2023/05/19 10:08:58;;;;;;;0.50;0.50;;;;;;;;;;5097274;28;20178;-87
2023/05/19 10:11:26;;;;;;;0.50;0.50;;;;;;;;;;5085298;28;20281;-87
2023/05/19 10:13:52;;;;;;;0.50;0.50;;;;;;;;;;5077297;28;20191;-87
2023/05/19 10:16:20;;;;;;;0.60;0.60;;;;;;;;;;5076173;28;20171;-87
2023/05/19 10:18:46;;;;;;;0.50;0.50;;;;;;;;;;5073990;28;20601;-86
2023/05/19 10:21:13;;;;;;;0.60;0.60;;;;;;;;;;5073764;28;20174;-86
2023/05/19 10:23:41;;;;;;;0.40;0.40;;;;;;;;;;5074277;28;20215;-86
2023/05/19 10:26:08;;;;;;;0.50;0.50;;;;;;;;;;5079759;28;20558;-89
2023/05/19 10:28:36;;;;;;;0.50;0.50;;;;;;;;;;5084195;28;20178;-86
2023/05/19 10:31:06;;;;;;;0.60;0.60;;;;;;;;;;5064514;28;20186;-87
2023/05/19 10:33:38;;;;;;;0.50;0.50;;;;;;;;;;5057603;28;20256;-87
2023/05/19 10:36:23;;;;;;;0.40;0.40;;;;;;;;;;5054913;28;20175;-85
2023/05/19 10:39:12;;;;;;;0.60;0.60;;;;;;;;;;5063422;28;20206;-85
2023/05/19 10:41:46;;;;;;;0.50;0.50;;;;;;;;;;5077086;28;20182;-87
2023/05/19 10:44:31;;;;;;;0.50;0.50;;;;;;;;;;5078999;28;20308;-85
2023/05/19 10:46:57;;;;;;;0.50;0.50;;;;;;;;;;5078638;28;20541;-87
2023/05/19 10:49:23;;;;;;;0.30;0.30;;;;;;;;;;5077821;28;20175;-85
2023/05/19 10:51:51;;;;;;;0.43;0.43;;;;;;;;;;5077545;28;20721;-87
2023/05/19 10:54:24;;;;;;;0.50;0.50;;;;;;;;;;5080966;28;20201;-85
2023/05/19 10:56:56;;;;;;;0.47;0.47;;;;;;;;;;5076264;28;20312;-86
2023/05/19 10:59:32;;;;;;;0.50;0.50;;;;;;;;;;5081512;28;20677;-87
2023/05/19 11:02:02;;;;;;;0.60;0.60;;;;;;;;;;5083377;28;20602;-88
2023/05/19 11:04:47;;;;;;;0.50;0.50;;;;;;;;;;5088659;28;20166;-85
2023/05/19 11:07:21;;;;;;;0.40;0.40;;;;;;;;;;5092518;28;20178;-87
2023/05/19 11:09:51;;;;;;;0.40;0.40;;;;;;;;;;5101931;28;20184;-86
2023/05/19 11:12:23;;;;;;;0.50;0.50;;;;;;;;;;5102009;28;20205;-86
2023/05/19 11:14:52;;;;;;;0.50;0.50;;;;;;;;;;5086723;28;20170;-85
2023/05/19 11:17:21;;;;;;;0.67;0.67;;;;;;;;;;5092907;28;20525;-87
2023/05/19 11:19:54;;;;;;;0.50;0.50;;;;;;;;;;5099321;28;20189;-84
2023/05/19 11:22:23;;;;;;;0.50;0.50;;;;;;;;;;5091335;28;20194;-84
2023/05/19 11:24:51;;;;;;;0.60;0.60;;;;;;;;;;5078090;28;20182;-84
2023/05/19 11:27:20;;;;;;;0.40;0.40;;;;;;;;;;5075244;28;20179;-84
2023/05/19 11:29:47;;;;;;;0.60;0.60;;;;;;;;;;5078015;28;20257;-85
2023/05/19 11:32:13;;;;;;;0.43;0.43;;;;;;;;;;5078739;28;20619;-85
2023/05/19 11:34:39;;;;;;;0.50;0.50;;;;;;;;;;5077422;28;20175;-86
2023/05/19 11:37:06;;;;;;;0.43;0.43;;;;;;;;;;5075980;28;20174;-84
2023/05/19 11:39:32;;;;;;;0.50;0.50;;;;;;;;;;5075357;28;20213;-82
2023/05/19 11:41:58;;;;;;;0.50;0.50;;;;;;;;;;5076207;28;20182;-83
2023/05/19 11:44:24;;;;;;;0.50;0.50;;;;;;;;;;5075861;28;20209;-81
2023/05/19 11:46:51;;;;;;;0.40;0.40;;;;;;;;;;5075732;28;20225;-82
2023/05/19 11:49:17;;;;;;;0.53;0.53;;;;;;;;;;5081326;28;20173;-81
2023/05/19 11:51:43;;;;;;;0.33;0.33;;;;;;;;;;5091992;28;20773;-81
2023/05/19 11:54:12;;;;;;;0.40;0.40;;;;;;;;;;5090907;28;20271;-84
2023/05/19 11:56:42;;;;;;;0.40;0.40;;;;;;;;;;5083261;28;20269;-82
2023/05/19 11:59:11;;;;;;;0.50;0.50;;;;;;;;;;5085216;28;20224;-83
2023/05/19 12:01:37;;;;;;;0.40;0.40;;;;;;;;;;5084060;28;20194;-84
2023/05/19 12:04:11;;;;;;;0.40;0.40;;;;;;;;;;5078450;28;20198;-85
2023/05/19 12:06:37;;;;;;;0.43;0.43;;;;;;;;;;5080391;28;20198;-79
2023/05/19 12:09:05;;;;;;;0.40;0.40;;;;;;;;;;5089457;28;20186;-82
2023/05/19 12:11:31;;;;;;;0.33;0.33;;;;;;;;;;5089614;28;20183;-84
2023/05/19 12:14:00;;;;;;;0.40;0.40;;;;;;;;;;5074456;28;20204;-82
2023/05/19 12:16:35;;;;;;;0.50;0.50;;;;;;;;;;5079399;28;20178;-83
2023/05/19 12:19:05;;;;;;;0.30;0.30;;;;;;;;;;5096982;28;20319;-83
2023/05/19 12:21:31;;;;;;;0.50;0.50;;;;;;;;;;5098523;28;20185;-84
2023/05/19 12:23:58;;;;;;;0.40;0.40;;;;;;;;;;5096326;28;20216;-83
2023/05/19 12:26:24;;;;;;;0.50;0.50;;;;;;;;;;5096925;28;20186;-82
2023/05/19 12:28:51;;;;;;;0.53;0.53;;;;;;;;;;5091241;28;20175;-83
2023/05/19 12:31:17;;;;;;;0.40;0.40;;;;;;;;;;5097933;28;20173;-84
2023/05/19 12:33:44;;;;;;;0.43;0.43;;;;;;;;;;5099159;28;20175;-82
2023/05/19 12:36:12;;;;;;;0.40;0.40;;;;;;;;;;5089236;28;20214;-83
2023/05/19 12:38:38;;;;;;;0.47;0.47;;;;;;;;;;5080682;28;20215;-83
2023/05/19 12:41:05;;;;;;;0.40;0.40;;;;;;;;;;5093014;28;20175;-83
2023/05/19 12:43:32;;;;;;;0.50;0.50;;;;;;;;;;5077609;28;20190;-82
2023/05/19 12:45:58;;;;;;;0.50;0.50;;;;;;;;;;5083082;28;20175;-82
2023/05/19 12:48:24;;;;;;;0.50;0.50;;;;;;;;;;5088525;28;20162;-82
2023/05/19 12:50:54;;;;;;;0.40;0.40;;;;;;;;;;5101701;28;20538;-83
2023/05/19 12:53:20;;;;;;;0.60;0.60;;;;;;;;;;5088054;28;20218;-81
2023/05/19 12:55:46;;;;;;;0.40;0.40;;;;;;;;;;5092820;28;20187;-82
2023/05/19 12:58:12;;;;;;;0.40;0.40;;;;;;;;;;5097988;28;20205;-82
2023/05/19 13:00:43;;;;;;;0.50;0.50;;;;;;;;;;5085437;28;20196;-82
2023/05/19 13:03:14;;;;;;;0.43;0.43;;;;;;;;;;5097558;28;20221;-83
2023/05/19 13:05:45;;;;;;;0.53;0.53;;;;;;;;;;5093142;28;20540;-82
2023/05/19 13:08:15;;;;;;;0.50;0.50;;;;;;;;;;5089205;28;20540;-84
2023/05/19 13:10:42;;;;;;;0.40;0.40;;;;;;;;;;5093591;28;20281;-83
2023/05/19 13:13:09;;;;;;;0.50;0.50;;;;;;;;;;5081144;28;20244;-83
2023/05/19 13:15:36;;;;;;;0.47;0.47;;;;;;;;;;5086058;28;20554;-82
2023/05/19 13:18:03;;;;;;;0.50;0.50;;;;;;;;;;5076311;28;20206;-82
2023/05/19 13:20:29;;;;;;;0.50;0.50;;;;;;;;;;5075672;28;20177;-84
2023/05/19 13:22:56;;;;;;;0.50;0.50;;;;;;;;;;5079826;28;20202;-84
2023/05/19 13:25:22;;;;;;;0.40;0.40;;;;;;;;;;5071779;28;20197;-85
2023/05/19 13:27:48;;;;;;;0.50;0.50;;;;;;;;;;5075508;28;20179;-84
2023/05/19 13:30:15;;;;;;;0.50;0.50;;;;;;;;;;5090453;28;20196;-84
2023/05/19 13:32:41;;;;;;;0.50;0.50;;;;;;;;;;5078057;28;20198;-83
2023/05/19 13:35:07;;;;;;;0.37;0.37;;;;;;;;;;5075371;28;20179;-84
2023/05/19 13:37:33;;;;;;;0.50;0.50;;;;;;;;;;5085530;28;20178;-84
2023/05/19 13:39:59;;;;;;;0.50;0.50;;;;;;;;;;5083753;28;20214;-83
2023/05/19 13:42:25;;;;;;;0.50;0.50;;;;;;;;;;5091819;28;20197;-84
2023/05/19 13:44:55;;;;;;;0.40;0.40;;;;;;;;;;5076573;28;20185;-84
2023/05/19 13:47:22;;;;;;;0.30;0.30;;;;;;;;;;5075292;28;20204;-84
2023/05/19 13:49:48;;;;;;;0.47;0.47;;;;;;;;;;5075992;28;20178;-84
2023/05/19 13:52:14;;;;;;;0.50;0.50;;;;;;;;;;5089543;28;20189;-83
2023/05/19 13:54:40;;;;;;;0.30;0.30;;;;;;;;;;5079009;28;20175;-84
2023/05/19 13:57:06;;;;;;;0.50;0.50;;;;;;;;;;5094200;28;20234;-85
2023/05/19 13:59:33;;;;;;;0.40;0.40;;;;;;;;;;5075380;28;20677;-84
2023/05/19 14:01:59;;;;;;;0.40;0.40;;;;;;;;;;5075288;28;20228;-84
2023/05/19 14:04:25;;;;;;;0.60;0.60;;;;;;;;;;5075844;28;20546;-85
2023/05/19 14:06:51;;;;;;;0.60;0.60;;;;;;;;;;5092335;28;20170;-84
2023/05/19 14:09:17;;;;;;;0.40;0.40;;;;;;;;;;5083609;28;20197;-83
2023/05/19 14:11:43;;;;;;;0.40;0.40;;;;;;;;;;5097441;28;20190;-84
2023/05/19 14:14:09;;;;;;;0.40;0.40;;;;;;;;;;5099280;28;20645;-86
2023/05/19 14:16:35;;;;;;;0.43;0.43;;;;;;;;;;5080836;28;20641;-86
2023/05/19 14:19:01;;;;;;;0.40;0.40;;;;;;;;;;5095304;28;20221;-85
2023/05/19 14:21:27;;;;;;;0.50;0.50;;;;;;;;;;5084147;28;20489;-84
2023/05/19 14:23:53;;;;;;;0.50;0.50;;;;;;;;;;5095162;28;20357;-84
2023/05/19 14:26:20;;;;;;;0.40;0.40;;;;;;;;;;5080073;28;20629;-84
2023/05/19 14:28:46;;;;;;;0.40;0.40;;;;;;;;;;5091520;28;20189;-85
2023/05/19 14:31:12;;;;;;;0.47;0.47;;;;;;;;;;5081550;28;20173;-86
2023/05/19 14:33:38;;;;;;;0.50;0.50;;;;;;;;;;5085371;28;20244;-85
2023/05/19 14:36:05;;;;;;;0.43;0.43;;;;;;;;;;5089435;28;20319;-84
2023/05/19 14:38:31;;;;;;;0.30;0.30;;;;;;;;;;5094990;28;20312;-85
2023/05/19 14:40:57;;;;;;;0.40;0.40;;;;;;;;;;5080345;28;20178;-85
2023/05/19 14:43:23;;;;;;;0.50;0.50;;;;;;;;;;5088187;28;20196;-85